ADDS METAR Data INFO
IDs: Format: Raw Decoded Include TAF

Data at: 0503 UTC 18 Feb 2018

KGXY 180456Z AUTO 05005KT 10SM CLR M02/M08 A2978 RMK AO2 SLP104 T10221078 FZRANO
KGXY 180356Z AUTO 14007KT 10SM CLR 00/M08 A2981 RMK AO2 SLP114 T00001078 FZRANO
KGXY 180256Z AUTO 12006KT 10SM CLR 02/M09 A2984 RMK AO2 SLP125 T00171094 58006 FZRANO TSNO
KGXY 180156Z AUTO 19004KT 10SM CLR 05/M11 A2987 RMK AO2 SLP134 T00501106
KGXY 180056Z AUTO 13007KT 10SM CLR 07/M12 A2986 RMK AO2 SLP129 T00671122
KGXY 172356Z AUTO 18008KT 10SM CLR 12/M12 A2986 RMK AO2 SLP118 T01221122 10133 20072 56029
KGXY 172256Z AUTO 15015KT 10SM CLR 13/M12 A2989 RMK AO2 SLP129 T01281122
KGXY 172156Z AUTO 16013KT 10SM CLR 13/M12 A2993 RMK AO2 SLP138 T01281122
KGXY 172056Z AUTO 16013KT 10SM CLR 12/M11 A2996 RMK AO2 SLP153 T01171111 58029
KGXY 171956Z AUTO 18013KT 10SM CLR 11/M12 A3000 RMK AO2 SLP181 T01111117
KGXY 171856Z AUTO 22007KT 10SM CLR 10/M12 A3004 RMK AO2 SLP197 T01001122
KGXY 171756Z AUTO 00000KT 10SM CLR 08/M13 A3006 RMK AO2 SLP209 T00781133 10083 20000 50008
KGXY 171656Z AUTO 35008G19KT 10SM CLR 07/M12 A3007 RMK AO2 SLP210 T00721122
KGXY 171556Z AUTO 32014KT 10SM CLR 05/M11 A3005 RMK AO2 SLP203 T00501111
KGXY 171456Z AUTO 32010KT 10SM CLR 03/M12 A3004 RMK AO2 SLP204 T00331117 51019
KGXY 171356Z AUTO 34013G21KT 10SM CLR 01/M12 A3001 RMK AO2 SLP198 T00061117 FZRANO
KGXY 171256Z AUTO 02014KT 10SM CLR 00/M11 A3000 RMK AO2 SLP185 T00001111 FZRANO
KGXY 171156Z AUTO 34014KT 10SM CLR 01/M11 A2997 RMK AO2 SLP168 T00111111 10022 21067 53017 FZRANO
KGXY 171056Z AUTO 33016KT 10SM CLR 01/M11 A2994 RMK AO2 SLP160 T00061111 FZRANO
KGXY 170956Z AUTO 31019KT 10SM CLR 02/M11 A2993 RMK AO2 PK WND 33034/0904 SLP152 T00221106 FZRANO
KGXY 170856Z AUTO 33022G26KT 10SM FEW090 02/M09 A2991 RMK AO2 PK WND 33026/0849 WSHFT 0817 SLP152 T00171094 53025 FZRANO
KGXY 170837Z AUTO 34020KT 10SM CLR 01/M09 A2991 RMK AO2 WSHFT 0817 FZRANO
KGXY 170756Z AUTO 23003KT 10SM CLR M06/M08 A2988 RMK AO2 SLP159 T10611083 FZRANO
KGXY 170656Z AUTO 09004KT 10SM CLR M06/M08 A2985 RMK AO2 SLP150 T10611083 400561106 FZRANO TSNO
KGXY 170556Z AUTO 00000KT 10SM CLR M06/M08 A2983 RMK AO2 SLP144 T10561078 10050 21067 50000 FZRANO
KGXY 170456Z AUTO 02004KT 10SM CLR M05/M08 A2984 RMK AO2 SLP149 T10501078 FZRANO
KGXY 170356Z AUTO 32006KT 10SM CLR M03/M07 A2983 RMK AO2 SLP148 T10281072 FZRANO
KGXY 170256Z AUTO 33006KT 10SM CLR M04/M08 A2983 RMK AO2 SLP155 T10391078 56011 FZRANO
KGXY 170156Z AUTO 34004KT 10SM CLR M02/M07 A2985 RMK AO2 SLP161 T10221067 FZRANO
KGXY 170056Z AUTO 23004KT 10SM CLR 03/M07 A2985 RMK AO2 SLP152 T00281067
KGXY 162356Z AUTO 16003KT 10SM CLR 05/M06 A2987 RMK AO2 SLP153 T00501061 10056 21011 56029
KGXY 162256Z AUTO 14006KT 10SM CLR 05/M07 A2989 RMK AO2 SLP162 T00501067
KGXY 162156Z AUTO 17003KT 10SM CLR 05/M07 A2993 RMK AO2 SLP171 T00501072 TSNO
KGXY 162056Z AUTO 32004KT 10SM CLR 03/M08 A2997 RMK AO2 SLP190 T00281083 56051
KGXY 161956Z AUTO 00000KT 10SM CLR 01/M08 A3002 RMK AO2 SLP210 T00111083 FZRANO
KGXY 161856Z AUTO 27004KT 10SM CLR 01/M08 A3009 RMK AO2 SLP232 T00061078 FZRANO
KGXY 161756Z AUTO 00000KT 10SM CLR M01/M07 A3014 RMK AO2 SLP253 T10111072 11006 21106 58029 FZRANO